sensor_id;sensor_type;location;lat;lon;timestamp;P1;durP1;ratioP1;P2;durP2;ratioP2
56519;SDS011;42420;53.586;10.052;2022-12-20T00:01:48;8.50;;;4.95;;
56519;SDS011;42420;53.586;10.052;2022-12-20T00:06:45;9.52;;;5.10;;
56519;SDS011;42420;53.586;10.052;2022-12-20T00:11:41;9.68;;;5.30;;
56519;SDS011;42420;53.586;10.052;2022-12-20T00:16:38;10.70;;;5.63;;
56519;SDS011;42420;53.586;10.052;2022-12-20T00:21:34;10.38;;;5.72;;
56519;SDS011;42420;53.586;10.052;2022-12-20T00:26:32;10.05;;;5.00;;
56519;SDS011;42420;53.586;10.052;2022-12-20T00:31:30;10.00;;;5.15;;
56519;SDS011;42420;53.586;10.052;2022-12-20T00:36:28;10.18;;;5.38;;
56519;SDS011;42420;53.586;10.052;2022-12-20T00:41:26;10.48;;;5.38;;
56519;SDS011;42420;53.586;10.052;2022-12-20T00:46:24;10.10;;;5.38;;
56519;SDS011;42420;53.586;10.052;2022-12-20T00:51:28;10.15;;;4.80;;
56519;SDS011;42420;53.586;10.052;2022-12-20T00:56:25;10.63;;;5.53;;
56519;SDS011;42420;53.586;10.052;2022-12-20T01:01:22;8.93;;;5.30;;
56519;SDS011;42420;53.586;10.052;2022-12-20T01:06:21;9.45;;;5.30;;
56519;SDS011;42420;53.586;10.052;2022-12-20T01:11:28;8.30;;;4.70;;
56519;SDS011;42420;53.586;10.052;2022-12-20T01:16:27;11.23;;;5.10;;
56519;SDS011;42420;53.586;10.052;2022-12-20T01:21:28;8.55;;;4.65;;
56519;SDS011;42420;53.586;10.052;2022-12-20T01:26:25;10.80;;;5.00;;
56519;SDS011;42420;53.586;10.052;2022-12-20T01:31:23;9.05;;;5.03;;
56519;SDS011;42420;53.586;10.052;2022-12-20T01:41:20;11.32;;;5.57;;
56519;SDS011;42420;53.586;10.052;2022-12-20T01:46:18;9.35;;;5.10;;
56519;SDS011;42420;53.586;10.052;2022-12-20T01:51:16;9.98;;;4.85;;
56519;SDS011;42420;53.586;10.052;2022-12-20T01:56:13;11.13;;;5.15;;
56519;SDS011;42420;53.586;10.052;2022-12-20T02:06:12;9.23;;;5.15;;
56519;SDS011;42420;53.586;10.052;2022-12-20T02:11:15;9.63;;;4.82;;
56519;SDS011;42420;53.586;10.052;2022-12-20T02:16:17;9.40;;;4.97;;
56519;SDS011;42420;53.586;10.052;2022-12-20T02:21:52;8.60;;;4.75;;
56519;SDS011;42420;53.586;10.052;2022-12-20T02:26:58;9.20;;;4.65;;
56519;SDS011;42420;53.586;10.052;2022-12-20T02:32:15;7.20;;;4.53;;
56519;SDS011;42420;53.586;10.052;2022-12-20T02:37:14;7.68;;;4.28;;
56519;SDS011;42420;53.586;10.052;2022-12-20T02:42:11;7.78;;;4.40;;
56519;SDS011;42420;53.586;10.052;2022-12-20T02:47:11;10.38;;;4.10;;
56519;SDS011;42420;53.586;10.052;2022-12-20T02:52:09;8.60;;;4.43;;
56519;SDS011;42420;53.586;10.052;2022-12-20T02:57:18;8.50;;;4.20;;
56519;SDS011;42420;53.586;10.052;2022-12-20T03:02:18;7.90;;;3.58;;
56519;SDS011;42420;53.586;10.052;2022-12-20T03:07:15;9.07;;;3.90;;
56519;SDS011;42420;53.586;10.052;2022-12-20T03:12:13;6.95;;;3.55;;
56519;SDS011;42420;53.586;10.052;2022-12-20T03:17:11;7.43;;;3.55;;
56519;SDS011;42420;53.586;10.052;2022-12-20T03:27:04;5.95;;;3.30;;
56519;SDS011;42420;53.586;10.052;2022-12-20T03:32:01;10.02;;;3.45;;
56519;SDS011;42420;53.586;10.052;2022-12-20T03:36:57;9.23;;;4.10;;
56519;SDS011;42420;53.586;10.052;2022-12-20T03:41:54;7.15;;;4.00;;
56519;SDS011;42420;53.586;10.052;2022-12-20T03:46:50;8.50;;;4.80;;
56519;SDS011;42420;53.586;10.052;2022-12-20T03:51:47;8.65;;;4.50;;
56519;SDS011;42420;53.586;10.052;2022-12-20T03:56:43;7.65;;;3.60;;
56519;SDS011;42420;53.586;10.052;2022-12-20T04:01:40;7.35;;;3.63;;
56519;SDS011;42420;53.586;10.052;2022-12-20T04:06:36;7.22;;;3.30;;
56519;SDS011;42420;53.586;10.052;2022-12-20T04:11:33;6.43;;;3.28;;
56519;SDS011;42420;53.586;10.052;2022-12-20T04:16:29;8.25;;;3.28;;
56519;SDS011;42420;53.586;10.052;2022-12-20T04:21:31;8.20;;;3.50;;
56519;SDS011;42420;53.586;10.052;2022-12-20T04:26:28;7.18;;;3.20;;
56519;SDS011;42420;53.586;10.052;2022-12-20T04:36:21;7.93;;;3.60;;
56519;SDS011;42420;53.586;10.052;2022-12-20T04:41:18;7.60;;;3.65;;
56519;SDS011;42420;53.586;10.052;2022-12-20T04:46:18;6.57;;;3.75;;
56519;SDS011;42420;53.586;10.052;2022-12-20T04:51:15;8.75;;;4.05;;
56519;SDS011;42420;53.586;10.052;2022-12-20T04:56:19;8.15;;;3.70;;
56519;SDS011;42420;53.586;10.052;2022-12-20T05:01:17;8.43;;;3.75;;
56519;SDS011;42420;53.586;10.052;2022-12-20T05:06:14;8.88;;;3.78;;
56519;SDS011;42420;53.586;10.052;2022-12-20T05:11:11;8.90;;;3.92;;
56519;SDS011;42420;53.586;10.052;2022-12-20T05:16:09;8.65;;;4.25;;
56519;SDS011;42420;53.586;10.052;2022-12-20T05:41:50;9.65;;;4.53;;
56519;SDS011;42420;53.586;10.052;2022-12-20T05:46:53;9.75;;;4.13;;
56519;SDS011;42420;53.586;10.052;2022-12-20T05:51:49;9.35;;;4.70;;
56519;SDS011;42420;53.586;10.052;2022-12-20T05:56:46;11.55;;;5.65;;
56519;SDS011;42420;53.586;10.052;2022-12-20T06:01:42;8.40;;;4.95;;
56519;SDS011;42420;53.586;10.052;2022-12-20T06:06:39;11.45;;;5.07;;
56519;SDS011;42420;53.586;10.052;2022-12-20T06:11:36;9.05;;;4.65;;
56519;SDS011;42420;53.586;10.052;2022-12-20T06:16:32;8.55;;;4.63;;
56519;SDS011;42420;53.586;10.052;2022-12-20T06:21:29;9.23;;;4.38;;
56519;SDS011;42420;53.586;10.052;2022-12-20T06:26:27;10.50;;;5.00;;
56519;SDS011;42420;53.586;10.052;2022-12-20T06:31:31;9.90;;;4.63;;
56519;SDS011;42420;53.586;10.052;2022-12-20T06:36:27;8.85;;;4.15;;
56519;SDS011;42420;53.586;10.052;2022-12-20T06:41:24;10.27;;;5.10;;
56519;SDS011;42420;53.586;10.052;2022-12-20T06:46:22;9.55;;;5.03;;
56519;SDS011;42420;53.586;10.052;2022-12-20T06:51:18;7.22;;;4.43;;
56519;SDS011;42420;53.586;10.052;2022-12-20T06:56:16;9.63;;;5.35;;
56519;SDS011;42420;53.586;10.052;2022-12-20T07:01:13;8.63;;;4.20;;
56519;SDS011;42420;53.586;10.052;2022-12-20T07:06:09;7.22;;;4.10;;
56519;SDS011;42420;53.586;10.052;2022-12-20T07:11:06;9.15;;;4.40;;
56519;SDS011;42420;53.586;10.052;2022-12-20T07:16:03;11.48;;;4.82;;
56519;SDS011;42420;53.586;10.052;2022-12-20T07:21:00;10.18;;;5.15;;
56519;SDS011;42420;53.586;10.052;2022-12-20T07:25:59;10.50;;;5.65;;
56519;SDS011;42420;53.586;10.052;2022-12-20T07:30:59;10.32;;;4.90;;
56519;SDS011;42420;53.586;10.052;2022-12-20T07:36:02;9.80;;;5.25;;
56519;SDS011;42420;53.586;10.052;2022-12-20T07:41:05;10.25;;;4.45;;
56519;SDS011;42420;53.586;10.052;2022-12-20T07:46:03;8.27;;;5.05;;
56519;SDS011;42420;53.586;10.052;2022-12-20T07:51:02;10.15;;;5.30;;
56519;SDS011;42420;53.586;10.052;2022-12-20T07:56:02;11.20;;;5.28;;
56519;SDS011;42420;53.586;10.052;2022-12-20T08:01:00;10.02;;;5.53;;
56519;SDS011;42420;53.586;10.052;2022-12-20T08:05:57;9.52;;;5.78;;
56519;SDS011;42420;53.586;10.052;2022-12-20T08:10:56;11.25;;;6.00;;
56519;SDS011;42420;53.586;10.052;2022-12-20T08:15:52;8.80;;;5.63;;
56519;SDS011;42420;53.586;10.052;2022-12-20T08:20:49;10.48;;;5.68;;
56519;SDS011;42420;53.586;10.052;2022-12-20T08:25:45;9.13;;;5.50;;
56519;SDS011;42420;53.586;10.052;2022-12-20T08:30:42;11.80;;;6.30;;
56519;SDS011;42420;53.586;10.052;2022-12-20T08:35:38;11.70;;;6.45;;
56519;SDS011;42420;53.586;10.052;2022-12-20T08:40:35;10.35;;;5.88;;
56519;SDS011;42420;53.586;10.052;2022-12-20T08:45:31;12.00;;;6.35;;
56519;SDS011;42420;53.586;10.052;2022-12-20T08:50:28;13.77;;;6.53;;
56519;SDS011;42420;53.586;10.052;2022-12-20T08:55:24;12.35;;;5.88;;
56519;SDS011;42420;53.586;10.052;2022-12-20T09:00:24;11.10;;;6.15;;
56519;SDS011;42420;53.586;10.052;2022-12-20T09:05:21;14.32;;;6.32;;
56519;SDS011;42420;53.586;10.052;2022-12-20T09:10:17;11.60;;;5.95;;
56519;SDS011;42420;53.586;10.052;2022-12-20T09:15:14;10.70;;;6.00;;
56519;SDS011;42420;53.586;10.052;2022-12-20T09:20:11;10.50;;;5.65;;
56519;SDS011;42420;53.586;10.052;2022-12-20T09:25:07;12.98;;;6.05;;
56519;SDS011;42420;53.586;10.052;2022-12-20T09:30:04;11.50;;;5.97;;
56519;SDS011;42420;53.586;10.052;2022-12-20T09:35:01;11.05;;;5.85;;
56519;SDS011;42420;53.586;10.052;2022-12-20T09:40:00;10.63;;;5.70;;
56519;SDS011;42420;53.586;10.052;2022-12-20T09:45:02;13.02;;;6.78;;
56519;SDS011;42420;53.586;10.052;2022-12-20T09:50:02;10.68;;;5.65;;
56519;SDS011;42420;53.586;10.052;2022-12-20T09:59:56;11.02;;;5.95;;
56519;SDS011;42420;53.586;10.052;2022-12-20T10:04:55;9.93;;;5.65;;
56519;SDS011;42420;53.586;10.052;2022-12-20T10:25:21;10.38;;;5.60;;
56519;SDS011;42420;53.586;10.052;2022-12-20T10:30:22;10.10;;;5.35;;
56519;SDS011;42420;53.586;10.052;2022-12-20T10:40:28;10.10;;;5.20;;
56519;SDS011;42420;53.586;10.052;2022-12-20T10:45:59;11.10;;;5.25;;
56519;SDS011;42420;53.586;10.052;2022-12-20T10:56:19;8.95;;;5.03;;
56519;SDS011;42420;53.586;10.052;2022-12-20T11:01:18;12.98;;;5.32;;
56519;SDS011;42420;53.586;10.052;2022-12-20T11:06:16;8.95;;;5.03;;
56519;SDS011;42420;53.586;10.052;2022-12-20T11:11:15;10.73;;;4.72;;
56519;SDS011;42420;53.586;10.052;2022-12-20T11:16:28;9.98;;;4.90;;
56519;SDS011;42420;53.586;10.052;2022-12-20T11:37:26;10.25;;;4.35;;
56519;SDS011;42420;53.586;10.052;2022-12-20T11:42:37;10.73;;;4.90;;
56519;SDS011;42420;53.586;10.052;2022-12-20T11:47:49;9.50;;;4.85;;
56519;SDS011;42420;53.586;10.052;2022-12-20T11:53:01;9.50;;;4.28;;
56519;SDS011;42420;53.586;10.052;2022-12-20T12:03:27;7.80;;;4.15;;
56519;SDS011;42420;53.586;10.052;2022-12-20T12:08:33;7.32;;;3.85;;
56519;SDS011;42420;53.586;10.052;2022-12-20T12:13:37;7.05;;;3.75;;
56519;SDS011;42420;53.586;10.052;2022-12-20T12:18:38;7.38;;;3.72;;
56519;SDS011;42420;53.586;10.052;2022-12-20T12:28:40;6.93;;;3.53;;
56519;SDS011;42420;53.586;10.052;2022-12-20T12:33:47;8.00;;;3.60;;
56519;SDS011;42420;53.586;10.052;2022-12-20T12:38:53;6.68;;;3.40;;
56519;SDS011;42420;53.586;10.052;2022-12-20T12:49:28;7.10;;;3.28;;
56519;SDS011;42420;53.586;10.052;2022-12-20T12:54:29;11.68;;;3.70;;
56519;SDS011;42420;53.586;10.052;2022-12-20T13:05:29;8.93;;;3.72;;
56519;SDS011;42420;53.586;10.052;2022-12-20T13:09:50;10.60;;;4.45;;
56519;SDS011;42420;53.586;10.052;2022-12-20T13:14:47;11.55;;;4.10;;
56519;SDS011;42420;53.586;10.052;2022-12-20T13:19:49;12.05;;;4.20;;
56519;SDS011;42420;53.586;10.052;2022-12-20T13:24:55;9.98;;;5.40;;
56519;SDS011;42420;53.586;10.052;2022-12-20T13:35:01;9.93;;;4.68;;
56519;SDS011;42420;53.586;10.052;2022-12-20T13:39:58;11.75;;;4.60;;
56519;SDS011;42420;53.586;10.052;2022-12-20T13:44:55;9.43;;;4.50;;
56519;SDS011;42420;53.586;10.052;2022-12-20T13:49:52;10.93;;;5.28;;
56519;SDS011;42420;53.586;10.052;2022-12-20T13:54:49;9.27;;;4.82;;
56519;SDS011;42420;53.586;10.052;2022-12-20T13:59:52;9.00;;;4.38;;
56519;SDS011;42420;53.586;10.052;2022-12-20T14:04:59;8.40;;;4.65;;
56519;SDS011;42420;53.586;10.052;2022-12-20T14:10:01;14.23;;;5.22;;
56519;SDS011;42420;53.586;10.052;2022-12-20T14:15:01;13.45;;;5.55;;
56519;SDS011;42420;53.586;10.052;2022-12-20T14:20:05;7.95;;;4.40;;
56519;SDS011;42420;53.586;10.052;2022-12-20T14:25:08;8.60;;;4.50;;
56519;SDS011;42420;53.586;10.052;2022-12-20T14:35:23;9.48;;;4.32;;
56519;SDS011;42420;53.586;10.052;2022-12-20T14:50:33;14.73;;;6.43;;
56519;SDS011;42420;53.586;10.052;2022-12-20T14:55:35;13.65;;;6.25;;
56519;SDS011;42420;53.586;10.052;2022-12-20T15:00:34;14.05;;;7.43;;
56519;SDS011;42420;53.586;10.052;2022-12-20T15:10:32;8.18;;;4.80;;
56519;SDS011;42420;53.586;10.052;2022-12-20T15:15:35;9.50;;;4.72;;
56519;SDS011;42420;53.586;10.052;2022-12-20T15:20:32;10.10;;;5.45;;
56519;SDS011;42420;53.586;10.052;2022-12-20T15:25:29;9.43;;;5.03;;
56519;SDS011;42420;53.586;10.052;2022-12-20T15:30:44;12.40;;;6.25;;
56519;SDS011;42420;53.586;10.052;2022-12-20T16:03:40;13.50;;;6.28;;
56519;SDS011;42420;53.586;10.052;2022-12-20T17:16:01;14.23;;;6.38;;
56519;SDS011;42420;53.586;10.052;2022-12-20T17:31:29;12.13;;;5.30;;
56519;SDS011;42420;53.586;10.052;2022-12-20T17:36:29;9.15;;;5.25;;
56519;SDS011;42420;53.586;10.052;2022-12-20T17:41:33;13.32;;;5.53;;
56519;SDS011;42420;53.586;10.052;2022-12-20T17:46:30;11.77;;;6.00;;
56519;SDS011;42420;53.586;10.052;2022-12-20T18:27:54;8.70;;;5.57;;
56519;SDS011;42420;53.586;10.052;2022-12-20T18:43:18;11.40;;;6.82;;
56519;SDS011;42420;53.586;10.052;2022-12-20T18:48:15;12.18;;;6.60;;
56519;SDS011;42420;53.586;10.052;2022-12-20T18:53:11;10.63;;;6.18;;
56519;SDS011;42420;53.586;10.052;2022-12-20T18:58:08;8.88;;;6.20;;
56519;SDS011;42420;53.586;10.052;2022-12-20T19:03:04;11.95;;;6.70;;
56519;SDS011;42420;53.586;10.052;2022-12-20T19:08:01;12.02;;;7.43;;
56519;SDS011;42420;53.586;10.052;2022-12-20T19:13:03;14.07;;;7.75;;
56519;SDS011;42420;53.586;10.052;2022-12-20T19:18:04;15.43;;;8.50;;
56519;SDS011;42420;53.586;10.052;2022-12-20T19:23:11;14.82;;;8.00;;
56519;SDS011;42420;53.586;10.052;2022-12-20T19:28:08;13.82;;;8.35;;
56519;SDS011;42420;53.586;10.052;2022-12-20T19:33:10;15.45;;;9.05;;
56519;SDS011;42420;53.586;10.052;2022-12-20T19:38:09;14.55;;;9.48;;
56519;SDS011;42420;53.586;10.052;2022-12-20T19:43:07;16.17;;;9.55;;
56519;SDS011;42420;53.586;10.052;2022-12-20T19:48:07;16.00;;;9.63;;
56519;SDS011;42420;53.586;10.052;2022-12-20T19:53:03;13.93;;;9.50;;
56519;SDS011;42420;53.586;10.052;2022-12-20T20:08:24;13.52;;;8.77;;
56519;SDS011;42420;53.586;10.052;2022-12-20T20:18:33;15.80;;;10.45;;
56519;SDS011;42420;53.586;10.052;2022-12-20T20:23:30;15.43;;;10.65;;
56519;SDS011;42420;53.586;10.052;2022-12-20T20:33:28;14.38;;;10.38;;
56519;SDS011;42420;53.586;10.052;2022-12-20T20:38:27;16.27;;;10.63;;
56519;SDS011;42420;53.586;10.052;2022-12-20T20:43:24;14.52;;;10.23;;
56519;SDS011;42420;53.586;10.052;2022-12-20T20:48:21;15.13;;;10.68;;
56519;SDS011;42420;53.586;10.052;2022-12-20T20:53:18;15.80;;;11.13;;
56519;SDS011;42420;53.586;10.052;2022-12-20T20:58:15;15.57;;;11.23;;
56519;SDS011;42420;53.586;10.052;2022-12-20T21:03:11;19.80;;;13.13;;
56519;SDS011;42420;53.586;10.052;2022-12-20T21:13:05;17.38;;;12.13;;
56519;SDS011;42420;53.586;10.052;2022-12-20T21:18:01;17.90;;;12.85;;
56519;SDS011;42420;53.586;10.052;2022-12-20T21:22:58;16.35;;;12.52;;
56519;SDS011;42420;53.586;10.052;2022-12-20T21:27:56;16.58;;;12.35;;
56519;SDS011;42420;53.586;10.052;2022-12-20T21:32:52;16.30;;;11.63;;
56519;SDS011;42420;53.586;10.052;2022-12-20T21:37:49;14.98;;;11.52;;
56519;SDS011;42420;53.586;10.052;2022-12-20T21:42:45;14.30;;;11.27;;
56519;SDS011;42420;53.586;10.052;2022-12-20T21:47:42;16.35;;;11.68;;
56519;SDS011;42420;53.586;10.052;2022-12-20T21:52:39;16.65;;;12.00;;
56519;SDS011;42420;53.586;10.052;2022-12-20T21:57:36;15.45;;;11.05;;
56519;SDS011;42420;53.586;10.052;2022-12-20T22:02:32;14.73;;;11.05;;
56519;SDS011;42420;53.586;10.052;2022-12-20T22:07:31;14.23;;;11.10;;
56519;SDS011;42420;53.586;10.052;2022-12-20T22:12:27;14.02;;;11.00;;
56519;SDS011;42420;53.586;10.052;2022-12-20T22:17:25;13.57;;;10.50;;
56519;SDS011;42420;53.586;10.052;2022-12-20T22:22:23;13.32;;;10.30;;
56519;SDS011;42420;53.586;10.052;2022-12-20T22:27:20;13.80;;;9.82;;
56519;SDS011;42420;53.586;10.052;2022-12-20T22:32:18;12.88;;;10.05;;
56519;SDS011;42420;53.586;10.052;2022-12-20T22:37:15;13.50;;;10.10;;
56519;SDS011;42420;53.586;10.052;2022-12-20T22:42:11;14.85;;;10.48;;
56519;SDS011;42420;53.586;10.052;2022-12-20T22:47:08;13.88;;;10.65;;
56519;SDS011;42420;53.586;10.052;2022-12-20T22:52:04;14.32;;;10.73;;
56519;SDS011;42420;53.586;10.052;2022-12-20T22:57:03;14.10;;;10.32;;
56519;SDS011;42420;53.586;10.052;2022-12-20T23:01:59;13.90;;;10.73;;
56519;SDS011;42420;53.586;10.052;2022-12-20T23:06:57;14.02;;;10.27;;
56519;SDS011;42420;53.586;10.052;2022-12-20T23:11:53;13.27;;;10.63;;
56519;SDS011;42420;53.586;10.052;2022-12-20T23:17:08;14.40;;;11.05;;
56519;SDS011;42420;53.586;10.052;2022-12-20T23:22:05;14.05;;;10.65;;
56519;SDS011;42420;53.586;10.052;2022-12-20T23:27:20;12.95;;;10.20;;
56519;SDS011;42420;53.586;10.052;2022-12-20T23:32:17;14.32;;;10.57;;
56519;SDS011;42420;53.586;10.052;2022-12-20T23:37:13;14.38;;;10.50;;
56519;SDS011;42420;53.586;10.052;2022-12-20T23:42:10;13.30;;;9.50;;
56519;SDS011;42420;53.586;10.052;2022-12-20T23:47:06;12.98;;;9.00;;
56519;SDS011;42420;53.586;10.052;2022-12-20T23:52:03;15.43;;;9.07;;
56519;SDS011;42420;53.586;10.052;2022-12-20T23:56:59;13.68;;;8.80;;
